Time;durP1;ratioP1;P1;durP2;ratioP2;P2;SDS_P1;SDS_P2;PMS_P1;PMS_P2;Temp;Humidity;BMP_temperature;BMP_pressure;BME280_temperature;BME280_humidity;BME280_pressure;Samples;Min_cycle;Max_cycle;Signal;HPM_P1;HPM_P2
2023/04/19 00:00:51;;;;;;;;;;;;;;;4.19;44.10;103137.03;4980281;28;19914;-70
2023/04/19 00:03:17;;;;;;;;;;;;;;;4.19;43.85;103131.75;4980290;28;19914;-69
2023/04/19 00:05:42;;;;;;;;;;;;;;;4.14;44.33;103128.44;4977972;28;19953;-70
2023/04/19 00:08:07;;;;;;;;;;;;;;;4.10;44.60;103132.13;4977740;28;20385;-72
2023/04/19 00:10:34;;;;;;;;;;;;;;;4.08;43.99;103134.84;4978054;28;19977;-70
2023/04/19 00:13:00;;;;;;;;;;;;;;;4.07;44.20;103133.13;4945268;28;20358;-70
2023/04/19 00:15:25;;;;;;;;;;;;;;;4.06;44.28;103135.81;4977871;28;19969;-69
2023/04/19 00:17:51;;;;;;;;;;;;;;;4.07;44.15;103142.81;4979225;28;20354;-69
2023/04/19 00:20:16;;;;;;;;;;;;;;;4.03;44.70;103148.19;4979615;28;20325;-70
2023/04/19 00:22:41;;;;;;;;;;;;;;;4.00;44.70;103152.72;4980589;28;19914;-70
2023/04/19 00:25:07;;;;;;;;;;;;;;;3.97;44.80;103153.72;4979984;28;19918;-69
2023/04/19 00:27:32;;;;;;;;;;;;;;;3.95;45.17;103154.69;4980010;28;19915;-71
2023/04/19 00:29:57;;;;;;;;;;;;;;;3.89;45.57;103158.44;4978484;28;20012;-69
2023/04/19 00:32:25;;;;;;;;;;;;;;;3.90;45.19;103161.94;4978144;28;20008;-69
2023/04/19 00:34:51;;;;;;;;;;;;;;;3.90;45.44;103159.31;4978129;28;19918;-69
2023/04/19 00:37:16;;;;;;;;;;;;;;;3.92;45.34;103166.22;4978271;28;20362;-71
2023/04/19 00:39:41;;;;;;;;;;;;;;;3.92;45.46;103166.22;4977498;28;19953;-69
2023/04/19 00:42:07;;;;;;;;;;;;;;;3.89;45.13;103173.41;4978660;28;19915;-69
2023/04/19 00:44:32;;;;;;;;;;;;;;;3.85;45.56;103159.50;4979022;28;20353;-69
2023/04/19 00:46:58;;;;;;;;;;;;;;;3.80;46.21;103172.00;4979030;28;19969;-69
2023/04/19 00:49:24;;;;;;;;;;;;;;;3.81;45.83;103173.72;4979297;28;20361;-70
2023/04/19 00:51:50;;;;;;;;;;;;;;;3.78;46.33;103158.03;4986675;28;19957;-70
2023/04/19 00:54:15;;;;;;;;;;;;;;;3.78;46.63;103154.53;4998583;28;19914;-70
2023/04/19 00:56:42;;;;;;;;;;;;;;;3.74;46.90;103156.41;4988573;28;20005;-70
2023/04/19 00:59:08;;;;;;;;;;;;;;;3.69;47.47;103148.69;4980538;28;19962;-70
2023/04/19 01:01:33;;;;;;;;;;;;;;;3.69;47.62;103153.94;4959838;28;19914;-69
2023/04/19 01:04:02;;;;;;;;;;;;;;;3.63;48.27;103153.34;4944512;28;19915;-70
2023/04/19 01:06:28;;;;;;;;;;;;;;;3.59;48.28;103146.47;4976947;28;19914;-69
2023/04/19 01:08:54;;;;;;;;;;;;;;;3.58;48.28;103165.84;4976257;28;19922;-69
2023/04/19 01:11:19;;;;;;;;;;;;;;;3.57;48.05;103159.69;4976741;28;19998;-71
2023/04/19 01:13:45;;;;;;;;;;;;;;;3.54;49.32;103158.97;4977277;28;19918;-71
2023/04/19 01:16:13;;;;;;;;;;;;;;;3.53;49.19;103165.16;4977152;28;19969;-69
2023/04/19 01:18:39;;;;;;;;;;;;;;;3.50;49.39;103160.00;4976718;28;20377;-70
2023/04/19 01:21:06;;;;;;;;;;;;;;;3.43;50.20;103162.84;4975841;28;19976;-72
2023/04/19 01:23:31;;;;;;;;;;;;;;;3.42;50.62;103163.75;4975898;28;19957;-71
2023/04/19 01:25:57;;;;;;;;;;;;;;;3.38;50.75;103164.81;4976038;28;19925;-70
2023/04/19 01:28:22;;;;;;;;;;;;;;;3.35;51.76;103164.91;4975653;28;19918;-71
2023/04/19 01:30:52;;;;;;;;;;;;;;;3.35;51.20;103174.59;4976343;28;19974;-70
2023/04/19 01:33:18;;;;;;;;;;;;;;;3.34;52.46;103167.63;4976562;28;20013;-70
2023/04/19 01:35:43;;;;;;;;;;;;;;;3.33;52.84;103166.75;4976286;28;20029;-70
2023/04/19 01:38:09;;;;;;;;;;;;;;;3.30;52.72;103164.25;4975694;28;19914;-71
2023/04/19 01:40:34;;;;;;;;;;;;;;;3.26;54.17;103165.28;4975905;28;19977;-71
2023/04/19 01:42:59;;;;;;;;;;;;;;;3.26;53.89;103164.41;4975751;28;19947;-69
2023/04/19 01:45:25;;;;;;;;;;;;;;;3.27;54.00;103171.41;4975669;28;19969;-68
2023/04/19 01:47:50;;;;;;;;;;;;;;;3.22;55.44;103178.63;4975626;28;20397;-69
2023/04/19 01:50:16;;;;;;;;;;;;;;;3.19;55.62;103168.19;4975708;28;19920;-69
2023/04/19 01:52:41;;;;;;;;;;;;;;;3.19;55.69;103169.06;4975145;28;20285;-67
2023/04/19 01:55:07;;;;;;;;;;;;;;;3.11;57.16;103171.94;4975323;28;20320;-67
2023/04/19 01:57:32;;;;;;;;;;;;;;;3.11;57.55;103171.94;4975335;28;19985;-68
2023/04/19 01:59:57;;;;;;;;;;;;;;;3.09;57.80;103173.78;4975388;28;19914;-68
2023/04/19 02:02:23;;;;;;;;;;;;;;;3.04;58.18;103173.09;4957963;28;20009;-67
2023/04/19 02:04:48;;;;;;;;;;;;;;;3.03;58.26;103173.16;4975762;28;19918;-67
2023/04/19 02:07:13;;;;;;;;;;;;;;;3.05;58.59;103166.03;4975175;28;19929;-67
2023/04/19 02:09:39;;;;;;;;;;;;;;;3.05;58.76;103172.16;4976939;28;20274;-67
2023/04/19 02:12:04;;;;;;;;;;;;;;;3.01;59.44;103164.44;4976838;28;19925;-68
2023/04/19 02:14:30;;;;;;;;;;;;;;;2.99;59.75;103159.22;4974199;28;20012;-68
2023/04/19 02:16:56;;;;;;;;;;;;;;;2.99;60.34;103163.63;4975018;28;20277;-67
2023/04/19 02:19:21;;;;;;;;;;;;;;;3.02;59.74;103167.03;4974939;28;19914;-68
2023/04/19 02:21:47;;;;;;;;;;;;;;;2.98;60.46;103156.66;4974897;28;19921;-67
2023/04/19 02:24:12;;;;;;;;;;;;;;;2.91;61.85;103156.03;4974538;28;19976;-69
2023/04/19 02:26:38;;;;;;;;;;;;;;;2.85;62.45;103156.22;4974637;28;19925;-68
2023/04/19 02:29:03;;;;;;;;;;;;;;;2.82;62.54;103161.59;4974616;28;20251;-68
2023/04/19 02:31:28;;;;;;;;;;;;;;;2.85;61.99;103163.25;4974666;28;19918;-69
2023/04/19 02:33:54;;;;;;;;;;;;;;;2.82;63.54;103161.59;4974710;28;19918;-68
2023/04/19 02:36:19;;;;;;;;;;;;;;;2.81;63.67;103157.25;4974955;28;19969;-67
2023/04/19 02:38:44;;;;;;;;;;;;;;;2.80;63.86;103156.38;4974759;28;19918;-67
2023/04/19 02:41:10;;;;;;;;;;;;;;;2.76;64.69;103160.03;4974728;28;19917;-70
2023/04/19 02:43:35;;;;;;;;;;;;;;;2.75;65.49;103160.97;4974447;28;19925;-71
2023/04/19 02:46:00;;;;;;;;;;;;;;;2.74;65.77;103167.13;4974315;28;19922;-70
2023/04/19 02:48:26;;;;;;;;;;;;;;;2.74;65.82;103153.13;4974562;28;19943;-69
2023/04/19 02:50:51;;;;;;;;;;;;;;;2.73;65.87;103160.16;4974475;28;19936;-68
2023/04/19 02:53:17;;;;;;;;;;;;;;;2.70;66.51;103160.25;4974574;28;19946;-71
2023/04/19 02:55:42;;;;;;;;;;;;;;;2.70;67.37;103157.63;4974352;28;19921;-70
2023/04/19 02:58:07;;;;;;;;;;;;;;;2.70;66.30;103155.00;4974796;28;19914;-69
2023/04/19 03:00:33;;;;;;;;;;;;;;;2.71;67.47;103158.50;4958418;28;19914;-70
2023/04/19 03:02:58;;;;;;;;;;;;;;;2.74;67.73;103161.00;4974424;28;19915;-71
2023/04/19 03:05:23;;;;;;;;;;;;;;;2.71;68.85;103159.34;4974204;28;20009;-67
2023/04/19 03:07:49;;;;;;;;;;;;;;;2.71;68.33;103150.59;4974175;28;19914;-67
2023/04/19 03:10:14;;;;;;;;;;;;;;;2.73;68.16;103159.28;4973958;28;19914;-68
2023/04/19 03:12:40;;;;;;;;;;;;;;;2.76;68.21;103156.56;4974075;28;20302;-67
2023/04/19 03:15:06;;;;;;;;;;;;;;;2.75;69.57;103160.97;4973744;28;19918;-68
2023/04/19 03:17:32;;;;;;;;;;;;;;;2.73;70.34;103164.56;4974163;28;20358;-68
2023/04/19 03:19:57;;;;;;;;;;;;;;;2.68;71.00;103161.22;4973734;28;19968;-69
2023/04/19 03:22:23;;;;;;;;;;;;;;;2.73;69.02;103164.56;4976428;28;19922;-70
2023/04/19 03:24:48;;;;;;;;;;;;;;;2.74;69.96;103161.00;4958419;28;20314;-70
2023/04/19 03:27:13;;;;;;;;;;;;;;;2.74;71.05;103164.50;4974036;28;20067;-70
2023/04/19 03:29:39;;;;;;;;;;;;;;;2.80;69.10;103166.91;4973814;28;20391;-68
2023/04/19 03:32:05;;;;;;;;;;;;;;;2.84;70.93;103157.13;4973910;28;19918;-66
2023/04/19 03:34:31;;;;;;;;;;;;;;;2.91;69.44;103163.06;4956346;28;20360;-67
2023/04/19 03:36:56;;;;;;;;;;;;;;;3.07;71.16;103164.22;4973818;28;19923;-67
2023/04/19 03:39:22;;;;;;;;;;;;;;;3.53;69.43;103167.78;4974304;28;20369;-67
2023/04/19 03:41:47;;;;;;;;;;;;;;;4.14;66.69;103165.38;4974121;28;19961;-67
2023/04/19 03:44:12;;;;;;;;;;;;;;;4.47;65.30;103169.25;4973710;28;19921;-66
2023/04/19 03:46:38;;;;;;;;;;;;;;;4.64;63.77;103161.50;4988541;28;19918;-68
2023/04/19 03:49:03;;;;;;;;;;;;;;;4.60;64.60;103173.06;4973693;28;20266;-68
2023/04/19 03:51:28;;;;;;;;;;;;;;;4.69;63.70;103163.06;4974039;28;19922;-68
2023/04/19 03:53:54;;;;;;;;;;;;;;;4.58;63.83;103161.72;4973983;28;20025;-68
2023/04/19 03:56:19;;;;;;;;;;;;;;;4.58;63.71;103156.44;4974061;28;19921;-68
2023/04/19 03:58:45;;;;;;;;;;;;;;;4.45;64.56;103163.19;4985449;28;20046;-66
2023/04/19 04:01:17;;;;;;;;;;;;;;;4.31;64.55;103157.59;4988253;28;19918;-67
2023/04/19 04:03:43;;;;;;;;;;;;;;;3.88;66.76;103155.88;4975882;28;19914;-67
2023/04/19 04:06:08;;;;;;;;;;;;;;;3.63;68.26;103163.88;4974281;28;19921;-67
2023/04/19 04:08:33;;;;;;;;;;;;;;;3.44;69.29;103163.69;4974174;28;19937;-68
2023/04/19 04:10:59;;;;;;;;;;;;;;;3.30;71.04;103166.88;4989055;28;19914;-67
2023/04/19 04:13:24;;;;;;;;;;;;;;;3.25;70.52;103175.88;4973652;28;19915;-69
2023/04/19 04:15:49;;;;;;;;;;;;;;;3.15;72.53;103180.59;4974506;28;19914;-69
2023/04/19 04:18:16;;;;;;;;;;;;;;;3.12;71.90;103175.44;4974174;28;20016;-69
2023/04/19 04:20:42;;;;;;;;;;;;;;;3.12;72.98;103178.06;4940624;28;20357;-67
2023/04/19 04:23:07;;;;;;;;;;;;;;;3.11;73.65;103186.88;4973558;28;19914;-69
2023/04/19 04:25:36;;;;;;;;;;;;;;;3.11;72.92;103177.22;4973874;28;20021;-67
2023/04/19 04:28:02;;;;;;;;;;;;;;;3.14;72.38;103170.97;4973024;28;19965;-71
2023/04/19 04:30:27;;;;;;;;;;;;;;;3.18;73.09;103183.13;4973262;28;19922;-68
2023/04/19 04:32:56;;;;;;;;;;;;;;;3.24;72.82;103190.81;4973165;28;19918;-67
2023/04/19 04:35:22;;;;;;;;;;;;;;;3.24;72.97;103180.28;4973172;28;20413;-68
2023/04/19 04:37:47;;;;;;;;;;;;;;;3.27;72.54;103180.16;4975015;28;19914;-68
2023/04/19 04:40:13;;;;;;;;;;;;;;;3.28;72.72;103179.25;4977166;28;19920;-67
2023/04/19 04:42:38;;;;;;;;;;;;;;;3.29;73.31;103191.50;4976868;28;19921;-66
2023/04/19 04:45:04;;;;;;;;;;;;;;;3.30;72.86;103182.66;4976715;28;20270;-70
2023/04/19 04:47:31;;;;;;;;;;;;;;;3.32;72.60;103188.75;4976460;28;20373;-67
2023/04/19 04:49:56;;;;;;;;;;;;;;;3.33;73.03;103192.22;4976369;28;20005;-66
2023/04/19 04:52:21;;;;;;;;;;;;;;;3.34;73.14;103194.81;4976569;28;19915;-69
2023/04/19 04:54:47;;;;;;;;;;;;;;;3.36;72.58;103195.59;4976605;28;20309;-67
2023/04/19 04:57:12;;;;;;;;;;;;;;;3.41;72.11;103201.56;4976209;28;19914;-67
2023/04/19 04:59:37;;;;;;;;;;;;;;;3.48;71.80;103198.72;4976262;28;19938;-68
2023/04/19 05:02:02;;;;;;;;;;;;;;;3.52;71.97;103203.81;4976269;28;19916;-68
2023/04/19 05:04:28;;;;;;;;;;;;;;;3.56;71.32;103192.25;4978936;28;19964;-68
2023/04/19 05:06:53;;;;;;;;;;;;;;;3.63;71.02;103195.50;4984108;28;19918;-69
2023/04/19 05:09:18;;;;;;;;;;;;;;;3.65;72.19;103194.50;4982902;28;20041;-70
2023/04/19 05:11:44;;;;;;;;;;;;;;;3.77;70.55;103194.97;4987721;28;19961;-70
2023/04/19 05:14:11;;;;;;;;;;;;;;;3.85;70.60;103196.41;4984436;28;19914;-69
2023/04/19 05:16:36;;;;;;;;;;;;;;;3.89;70.42;103203.25;4985919;28;20369;-70
2023/04/19 05:19:02;;;;;;;;;;;;;;;3.98;69.48;103202.03;4983776;28;19914;-68
2023/04/19 05:21:27;;;;;;;;;;;;;;;4.04;69.65;103207.06;4986716;28;20324;-69
2023/04/19 05:23:52;;;;;;;;;;;;;;;4.10;69.32;103190.16;4985684;28;19920;-68
2023/04/19 05:26:18;;;;;;;;;;;;;;;4.18;68.36;103210.03;4984039;28;19956;-69
2023/04/19 05:28:44;;;;;;;;;;;;;;;4.20;67.43;103208.19;4980829;28;19918;-70
2023/04/19 05:31:13;;;;;;;;;;;;;;;4.24;67.16;103220.31;4983639;28;19961;-70
2023/04/19 05:33:38;;;;;;;;;;;;;;;4.27;67.04;103220.19;4985888;28;19960;-68
2023/04/19 05:36:04;;;;;;;;;;;;;;;4.31;66.69;103219.13;4966934;28;19953;-72
2023/04/19 05:38:29;;;;;;;;;;;;;;;4.35;66.20;103217.25;4986997;28;19936;-69
2023/04/19 05:40:54;;;;;;;;;;;;;;;4.41;65.67;103219.66;4986564;28;19914;-69
2023/04/19 05:43:20;;;;;;;;;;;;;;;4.47;65.64;103224.66;4984615;28;20381;-69
2023/04/19 05:45:46;;;;;;;;;;;;;;;4.52;65.29;103227.09;4986764;28;19945;-71
2023/04/19 05:48:11;;;;;;;;;;;;;;;4.57;64.47;103226.00;4964211;28;19926;-69
2023/04/19 05:50:36;;;;;;;;;;;;;;;4.58;64.85;103226.84;4984710;28;19914;-69
2023/04/19 05:53:02;;;;;;;;;;;;;;;4.55;64.94;103235.75;4995928;28;19914;-68
2023/04/19 05:55:27;;;;;;;;;;;;;;;4.64;64.56;103230.13;4995841;28;19937;-69
2023/04/19 05:57:53;;;;;;;;;;;;;;;4.74;64.65;103237.63;4995056;28;20005;-68
2023/04/19 06:00:18;;;;;;;;;;;;;;;4.82;63.85;103233.75;4994695;28;20350;-72
2023/04/19 06:02:44;;;;;;;;;;;;;;;4.90;62.96;103238.69;4994478;28;20349;-67
2023/04/19 06:05:09;;;;;;;;;;;;;;;4.97;63.29;103237.53;4994553;28;19960;-67
2023/04/19 06:07:35;;;;;;;;;;;;;;;4.97;62.08;103233.09;4994608;28;19922;-71
2023/04/19 06:10:00;;;;;;;;;;;;;;;4.89;61.82;103237.84;4994477;28;19960;-69
2023/04/19 06:12:26;;;;;;;;;;;;;;;4.91;60.79;103232.47;4994732;28;20309;-68
2023/04/19 06:14:51;;;;;;;;;;;;;;;4.99;61.06;103235.69;4994263;28;19913;-73
2023/04/19 06:17:22;;;;;;;;;;;;;;;5.06;61.47;103239.75;4977017;28;20388;-68
2023/04/19 06:19:47;;;;;;;;;;;;;;;5.14;60.72;103237.63;4994800;28;19960;-67
2023/04/19 06:22:12;;;;;;;;;;;;;;;5.18;60.23;103236.56;4990995;28;19914;-70
2023/04/19 06:24:38;;;;;;;;;;;;;;;5.22;60.66;103238.19;4975339;28;20345;-76
2023/04/19 06:27:03;;;;;;;;;;;;;;;5.23;60.37;103244.31;4957324;28;19914;-70
2023/04/19 06:29:28;;;;;;;;;;;;;;;5.25;60.16;103239.81;4975163;28;19925;-69
2023/04/19 06:31:54;;;;;;;;;;;;;;;5.35;59.99;103250.84;4974458;28;19965;-68
2023/04/19 06:34:19;;;;;;;;;;;;;;;5.37;60.17;103241.91;4974519;28;19941;-67
2023/04/19 06:36:45;;;;;;;;;;;;;;;5.38;60.00;103248.91;4974552;28;19918;-68
2023/04/19 06:39:10;;;;;;;;;;;;;;;5.36;60.00;103250.78;4974599;28;19969;-68
2023/04/19 06:41:35;;;;;;;;;;;;;;;5.41;59.82;103254.06;4974684;28;20361;-67
2023/04/19 06:44:01;;;;;;;;;;;;;;;5.48;59.51;103244.91;4957581;28;19959;-70
2023/04/19 06:46:26;;;;;;;;;;;;;;;5.44;59.24;103242.50;4974487;28;19992;-70
2023/04/19 06:48:51;;;;;;;;;;;;;;;5.52;60.21;103250.97;4974658;28;20282;-70
2023/04/19 06:51:17;;;;;;;;;;;;;;;5.62;59.88;103246.09;4974619;28;20309;-68
2023/04/19 06:53:43;;;;;;;;;;;;;;;5.66;60.10;103242.38;4974385;28;19921;-67
2023/04/19 06:56:09;;;;;;;;;;;;;;;5.74;58.40;103237.59;4974153;28;20305;-67
2023/04/19 06:58:34;;;;;;;;;;;;;;;5.81;57.87;103242.53;4974366;28;19914;-67
2023/04/19 07:01:00;;;;;;;;;;;;;;;5.84;57.47;103245.03;4973965;28;19914;-71
2023/04/19 07:03:26;;;;;;;;;;;;;;;5.89;57.54;103240.44;4987813;28;19917;-66
2023/04/19 07:05:51;;;;;;;;;;;;;;;5.95;57.12;103249.00;4989475;28;19977;-66
2023/04/19 07:08:17;;;;;;;;;;;;;;;5.95;57.19;103249.00;4976463;28;20372;-69
2023/04/19 07:10:42;;;;;;;;;;;;;;;5.99;56.42;103255.84;4975291;28;20009;-70
2023/04/19 07:13:09;;;;;;;;;;;;;;;6.02;56.26;103248.63;4975770;28;20018;-69
2023/04/19 07:15:34;;;;;;;;;;;;;;;6.14;56.23;103244.56;4974732;28;19922;-66
2023/04/19 07:18:00;;;;;;;;;;;;;;;6.23;56.15;103244.13;4973944;28;20480;-67
2023/04/19 07:20:25;;;;;;;;;;;;;;;6.35;55.79;103254.09;4972195;28;19981;-69
2023/04/19 07:22:50;;;;;;;;;;;;;;;6.43;56.22;103251.94;4992698;28;19976;-69
2023/04/19 07:25:16;;;;;;;;;;;;;;;6.55;55.67;103244.31;4993123;28;19920;-69
2023/04/19 07:27:41;;;;;;;;;;;;;;;6.56;54.33;103251.34;4993169;28;20310;-69
2023/04/19 07:30:07;;;;;;;;;;;;;;;6.58;54.48;103249.47;4992679;28;20380;-68
2023/04/19 07:32:32;;;;;;;;;;;;;;;6.59;54.34;103243.25;4993136;28;19925;-69
2023/04/19 07:34:57;;;;;;;;;;;;;;;6.64;54.04;103239.41;4985963;28;19921;-68
2023/04/19 07:37:23;;;;;;;;;;;;;;;6.78;54.21;103236.94;4973670;28;19918;-69
2023/04/19 07:39:48;;;;;;;;;;;;;;;6.88;52.74;103245.28;4973622;28;19918;-70
2023/04/19 07:42:14;;;;;;;;;;;;;;;6.93;52.08;103240.59;4973632;28;19921;-69
2023/04/19 07:44:39;;;;;;;;;;;;;;;6.97;52.43;103239.53;4973368;28;20376;-68
2023/04/19 07:47:05;;;;;;;;;;;;;;;7.08;52.62;103244.25;4973514;28;19914;-68
2023/04/19 07:49:32;;;;;;;;;;;;;;;7.11;52.38;103239.66;4973768;28;19914;-69
2023/04/19 07:51:59;;;;;;;;;;;;;;;7.20;51.99;103248.06;4973408;28;19918;-69
2023/04/19 07:54:25;;;;;;;;;;;;;;;7.22;52.24;103246.19;4973340;28;20005;-67
2023/04/19 07:56:50;;;;;;;;;;;;;;;7.34;51.46;103248.22;4973333;28;19949;-67
2023/04/19 07:59:16;;;;;;;;;;;;;;;7.37;49.86;103248.03;4973178;28;19917;-67
2023/04/19 08:01:41;;;;;;;;;;;;;;;7.40;48.98;103245.22;4973319;28;20397;-68
2023/04/19 08:04:06;;;;;;;;;;;;;;;7.44;48.70;103249.44;4973501;28;20385;-67
2023/04/19 08:06:32;;;;;;;;;;;;;;;7.51;49.02;103248.16;4973621;28;19937;-67
2023/04/19 08:08:57;;;;;;;;;;;;;;;7.57;47.64;103253.16;4973247;28;19915;-67
2023/04/19 08:11:24;;;;;;;;;;;;;;;7.64;47.84;103243.91;4976703;28;20020;-67
2023/04/19 08:13:49;;;;;;;;;;;;;;;7.76;47.78;103253.00;4977722;28;19918;-70
2023/04/19 08:16:15;;;;;;;;;;;;;;;7.83;46.87;103243.78;4978106;28;19914;-68
2023/04/19 08:18:40;;;;;;;;;;;;;;;7.88;46.41;103241.72;4979112;28;19914;-67
2023/04/19 08:21:06;;;;;;;;;;;;;;;7.99;46.05;103244.63;4976997;28;19917;-67
2023/04/19 08:23:31;;;;;;;;;;;;;;;8.01;45.73;103248.06;4977124;28;19960;-67
2023/04/19 08:25:57;;;;;;;;;;;;;;;8.06;45.64;103246.00;4978645;28;20312;-69
2023/04/19 08:28:22;;;;;;;;;;;;;;;8.13;45.80;103235.91;4977832;28;20338;-66
2023/04/19 08:30:52;;;;;;;;;;;;;;;8.19;45.40;103245.31;4976408;28;20344;-69
2023/04/19 08:33:18;;;;;;;;;;;;;;;8.26;46.08;103242.22;4960113;28;19925;-68
2023/04/19 08:35:44;;;;;;;;;;;;;;;8.28;46.67;103232.38;4977256;28;20433;-70
2023/04/19 08:38:10;;;;;;;;;;;;;;;8.43;45.84;103235.13;4976943;28;19936;-70
2023/04/19 08:40:40;;;;;;;;;;;;;;;8.54;46.12;103230.06;4976878;28;20362;-69
2023/04/19 08:43:06;;;;;;;;;;;;;;;8.66;45.25;103239.94;4976839;28;19914;-69
2023/04/19 08:45:32;;;;;;;;;;;;;;;8.70;44.12;103236.19;4944038;28;20451;-71
2023/04/19 08:47:58;;;;;;;;;;;;;;;8.70;44.69;103236.19;4976781;28;19921;-69
2023/04/19 08:50:24;;;;;;;;;;;;;;;8.83;45.06;103226.53;4976370;28;20083;-66
2023/04/19 08:52:49;;;;;;;;;;;;;;;8.95;43.92;103227.59;4976508;28;19957;-66
2023/04/19 08:55:15;;;;;;;;;;;;;;;9.00;43.84;103229.06;4987836;28;20387;-68
2023/04/19 08:57:40;;;;;;;;;;;;;;;9.06;43.67;103234.94;4983591;28;19922;-69
2023/04/19 09:00:10;;;;;;;;;;;;;;;9.11;43.38;103219.56;4987746;28;19945;-66
2023/04/19 09:02:46;;;;;;;;;;;;;;;9.17;43.88;103219.19;4989742;28;19924;-66
2023/04/19 09:05:12;;;;;;;;;;;;;;;9.26;44.09;103229.28;4986314;28;19920;-67
2023/04/19 09:07:37;;;;;;;;;;;;;;;9.17;43.17;103216.53;4990180;28;19913;-68
2023/04/19 09:10:24;;;;;;;;;;;;;;;9.21;43.63;103226.03;4977328;28;20389;-69
2023/04/19 09:13:00;;;;;;;;;;;;;;;9.17;43.35;103224.50;4995065;28;20008;-68
2023/04/19 09:15:39;;;;;;;;;;;;;;;9.26;43.72;103213.31;4993990;28;19972;-66
2023/04/19 09:18:06;;;;;;;;;;;;;;;9.42;43.84;103218.53;4997451;28;19968;-70
2023/04/19 09:20:41;;;;;;;;;;;;;;;9.55;43.45;103227.47;5013637;28;19944;-68
2023/04/19 09:23:08;;;;;;;;;;;;;;;9.57;43.08;103226.44;5014971;28;19964;-67
2023/04/19 09:25:34;;;;;;;;;;;;;;;9.49;42.03;103226.03;5014938;28;19913;-70
2023/04/19 09:28:12;;;;;;;;;;;;;;;9.48;41.57;103219.00;5014735;28;19914;-68
2023/04/19 09:30:39;;;;;;;;;;;;;;;9.56;41.31;103221.22;4974953;28;20470;-68
2023/04/19 09:33:06;;;;;;;;;;;;;;;9.60;40.01;103218.25;4961672;28;19918;-69
2023/04/19 09:35:41;;;;;;;;;;;;;;;9.63;39.86;103218.06;4956338;28;20012;-67
2023/04/19 09:38:07;;;;;;;;;;;;;;;9.70;38.98;103223.84;4956332;28;19921;-66
2023/04/19 09:40:32;;;;;;;;;;;;;;;9.65;38.96;103219.75;4955912;28;19914;-67
2023/04/19 09:42:57;;;;;;;;;;;;;;;9.56;39.83;103223.88;4955739;29;19915;-67
2023/04/19 09:45:23;;;;;;;;;;;;;;;9.59;39.64;103211.22;4955898;28;20338;-70
2023/04/19 09:48:02;;;;;;;;;;;;;;;9.61;39.94;103227.09;4954870;28;19972;-66
2023/04/19 09:50:27;;;;;;;;;;;;;;;9.69;39.92;103210.63;4956133;28;19919;-71
2023/04/19 09:52:53;;;;;;;;;;;;;;;9.74;38.97;103222.69;4956146;28;19921;-71
2023/04/19 09:55:18;;;;;;;;;;;;;;;9.78;40.16;103216.22;4954806;28;20353;-66
2023/04/19 09:57:44;;;;;;;;;;;;;;;9.83;39.02;103218.59;4956036;28;19914;-69
2023/04/19 10:00:12;;;;;;;;;;;;;;;9.85;38.79;103211.38;4956009;29;19938;-75
2023/04/19 10:02:39;;;;;;;;;;;;;;;9.94;38.81;103210.78;4956551;28;19914;-65
2023/04/19 10:05:05;;;;;;;;;;;;;;;9.91;38.53;103210.97;4960473;28;19915;-67
2023/04/19 10:07:31;;;;;;;;;;;;;;;9.95;38.24;103204.50;4960254;28;19914;-66
2023/04/19 10:10:00;;;;;;;;;;;;;;;10.00;38.24;103213.03;4959423;28;20478;-66
2023/04/19 10:12:25;;;;;;;;;;;;;;;10.07;38.57;103210.81;4973033;28;19914;-67
2023/04/19 10:14:55;;;;;;;;;;;;;;;10.15;38.54;103209.41;4955429;28;19926;-69
2023/04/19 10:17:21;;;;;;;;;;;;;;;10.14;37.70;103217.50;4955825;28;19921;-67
2023/04/19 10:19:50;;;;;;;;;;;;;;;10.15;38.19;103209.41;4956080;28;19914;-67
2023/04/19 10:22:15;;;;;;;;;;;;;;;10.18;38.36;103203.88;4957005;28;20367;-67
2023/04/19 10:25:03;;;;;;;;;;;;;;;10.23;37.61;103201.78;4955631;28;19930;-66
2023/04/19 10:27:28;;;;;;;;;;;;;;;10.28;37.68;103201.47;4955307;28;20393;-68
2023/04/19 10:29:59;;;;;;;;;;;;;;;10.36;37.19;103192.97;4985595;28;19961;-68
2023/04/19 10:32:28;;;;;;;;;;;;;;;10.43;37.50;103186.31;4994867;28;19953;-68
2023/04/19 10:34:53;;;;;;;;;;;;;;;10.47;35.56;103193.97;4993957;28;19918;-68
2023/04/19 10:37:24;;;;;;;;;;;;;;;10.42;36.42;103185.44;4993064;28;20392;-67
2023/04/19 10:39:50;;;;;;;;;;;;;;;10.42;36.34;103185.44;4994727;28;19918;-66
2023/04/19 10:42:15;;;;;;;;;;;;;;;10.45;36.77;103179.06;4996184;28;20377;-68
2023/04/19 10:44:40;;;;;;;;;;;;;;;10.48;35.60;103185.03;4996216;28;19921;-69
2023/04/19 10:47:06;;;;;;;;;;;;;;;10.57;35.24;103182.69;4998553;28;20056;-68
2023/04/19 10:49:42;;;;;;;;;;;;;;;10.67;35.43;103183.78;4998458;28;19957;-67
2023/04/19 10:52:25;;;;;;;;;;;;;;;10.72;35.67;103182.53;4995707;28;19913;-68
2023/04/19 10:54:54;;;;;;;;;;;;;;;10.75;36.01;103184.97;4993857;28;19913;-67
2023/04/19 10:57:20;;;;;;;;;;;;;;;10.81;35.19;103192.53;4993669;28;19914;-67
2023/04/19 11:00:06;;;;;;;;;;;;;;;10.74;35.43;103175.28;4994131;28;19939;-68
2023/04/19 11:02:32;;;;;;;;;;;;;;;10.71;35.51;103177.31;4993341;28;19964;-66
2023/04/19 11:04:59;;;;;;;;;;;;;;;10.78;36.16;103168.78;4993646;28;19949;-67
2023/04/19 11:07:25;;;;;;;;;;;;;;;10.86;36.18;103177.09;4993276;28;19914;-68
2023/04/19 11:09:51;;;;;;;;;;;;;;;10.91;36.35;103173.25;4993550;28;20258;-67
2023/04/19 11:12:18;;;;;;;;;;;;;;;10.86;35.68;103176.22;4976173;28;20308;-68
2023/04/19 11:14:53;;;;;;;;;;;;;;;10.85;36.03;103177.19;4993331;28;19949;-67
2023/04/19 11:17:18;;;;;;;;;;;;;;;10.80;35.64;103174.00;4992983;28;19917;-68
2023/04/19 11:19:52;;;;;;;;;;;;;;;10.83;35.54;103166.63;4993238;28;20370;-67
2023/04/19 11:22:18;;;;;;;;;;;;;;;10.88;35.80;103165.47;4993246;28;19957;-69
2023/04/19 11:24:47;;;;;;;;;;;;;;;10.92;35.81;103173.13;4986365;28;19965;-69
2023/04/19 11:27:12;;;;;;;;;;;;;;;10.95;35.70;103172.06;4992253;28;19914;-73
2023/04/19 11:29:38;;;;;;;;;;;;;;;10.96;35.68;103168.44;4992918;28;19917;-66
2023/04/19 11:32:04;;;;;;;;;;;;;;;11.04;35.64;103174.13;4992061;28;19918;-71
2023/04/19 11:34:34;;;;;;;;;;;;;;;11.04;35.12;103166.97;4992991;28;20012;-75
2023/04/19 11:37:00;;;;;;;;;;;;;;;11.07;35.48;103163.22;4993370;28;19967;-73
2023/04/19 11:39:26;;;;;;;;;;;;;;;11.10;35.60;103165.69;4993078;28;19913;-70
2023/04/19 11:41:51;;;;;;;;;;;;;;;11.04;34.83;103164.31;4992881;28;20020;-70
2023/04/19 11:44:20;;;;;;;;;;;;;;;11.15;35.23;103163.53;4992978;28;19955;-70
2023/04/19 11:47:02;;;;;;;;;;;;;;;11.21;35.26;103168.44;4995193;28;19971;-72
2023/04/19 11:49:28;;;;;;;;;;;;;;;11.19;34.57;103159.69;4997309;28;19914;-69
2023/04/19 11:52:01;;;;;;;;;;;;;;;11.13;33.89;103162.78;4979944;28;19914;-71
2023/04/19 11:54:26;;;;;;;;;;;;;;;11.17;34.41;103170.47;4996703;28;19918;-70
2023/04/19 11:57:05;;;;;;;;;;;;;;;11.24;34.19;103176.22;4997169;28;20353;-70
2023/04/19 11:59:31;;;;;;;;;;;;;;;11.17;34.31;103172.28;4996729;28;19914;-72
2023/04/19 12:02:05;;;;;;;;;;;;;;;11.23;34.49;103166.50;4996866;28;20300;-72
2023/04/19 12:04:31;;;;;;;;;;;;;;;11.20;34.38;103181.88;4997007;28;19929;-70
2023/04/19 12:06:58;;;;;;;;;;;;;;;11.17;34.65;103161.63;4997147;28;19921;-70
2023/04/19 12:09:23;;;;;;;;;;;;;;;11.21;35.02;103162.25;4979086;28;19949;-67
2023/04/19 12:11:49;;;;;;;;;;;;;;;11.23;35.18;103166.50;4996790;28;19964;-68
2023/04/19 12:14:15;;;;;;;;;;;;;;;11.26;35.58;103150.28;5010144;28;19926;-69
2023/04/19 12:16:41;;;;;;;;;;;;;;;11.27;34.60;103157.31;5014658;28;19914;-68
2023/04/19 12:19:17;;;;;;;;;;;;;;;11.07;34.84;103147.22;5014730;28;19914;-67
2023/04/19 12:21:42;;;;;;;;;;;;;;;11.12;34.61;103145.09;5015963;28;19913;-68
2023/04/19 12:24:08;;;;;;;;;;;;;;;11.16;34.31;103150.09;5015948;28;19920;-69
2023/04/19 12:26:34;;;;;;;;;;;;;;;11.12;34.60;103148.59;4998310;28;20369;-71
2023/04/19 12:29:00;;;;;;;;;;;;;;;11.06;34.29;103146.38;5015923;28;19988;-66
2023/04/19 12:31:26;;;;;;;;;;;;;;;11.03;34.82;103143.06;5015926;28;20099;-68
2023/04/19 12:33:51;;;;;;;;;;;;;;;10.99;34.83;103141.59;5016641;28;20392;-68
2023/04/19 12:36:17;;;;;;;;;;;;;;;11.02;34.04;103144.03;5015683;28;19918;-69
2023/04/19 12:38:42;;;;;;;;;;;;;;;10.97;34.26;103144.34;5016092;28;19920;-70
2023/04/19 12:41:07;;;;;;;;;;;;;;;10.92;33.70;103133.16;5015981;28;19913;-68